Time;durP1;ratioP1;P1;durP2;ratioP2;P2;SDS_P1;SDS_P2;PMS_P1;PMS_P2;Temp;Humidity;BMP_temperature;BMP_pressure;BME280_temperature;BME280_humidity;BME280_pressure;Samples;Min_cycle;Max_cycle;Signal;HPM_P1;HPM_P2
2022/10/04 00:00:09;;;;;;;15.55;9.38;;;9.10;99.90;;;;;;5011955;28;20017;-44
2022/10/04 00:02:36;;;;;;;13.98;9.00;;;9.10;99.90;;;;;;5011379;28;20485;-47
2022/10/04 00:05:16;;;;;;;20.00;9.70;;;9.10;99.90;;;;;;5014587;28;20057;-45
2022/10/04 00:08:01;;;;;;;19.02;9.75;;;9.10;99.90;;;;;;5015891;28;20032;-45
2022/10/04 00:10:33;;;;;;;25.23;9.43;;;9.10;99.90;;;;;;5015747;28;20536;-47
2022/10/04 00:13:02;;;;;;;20.88;9.38;;;9.00;99.90;;;;;;5015478;28;20033;-45
2022/10/04 00:15:31;;;;;;;19.30;11.15;;;9.00;99.90;;;;;;5015573;28;20083;-46
2022/10/04 00:18:25;;;;;;;24.00;10.80;;;9.00;99.90;;;;;;5015732;28;20018;-44
2022/10/04 00:20:52;;;;;;;18.38;9.77;;;9.00;99.90;;;;;;5015490;28;20033;-45
2022/10/04 00:23:23;;;;;;;15.70;9.63;;;9.00;99.90;;;;;;5015135;28;20026;-50
2022/10/04 00:25:58;;;;;;;23.23;9.45;;;8.90;99.90;;;;;;5015258;28;20079;-45
2022/10/04 00:28:24;;;;;;;22.23;11.32;;;8.90;99.90;;;;;;5015056;28;20022;-46
2022/10/04 00:31:16;;;;;;;20.95;11.50;;;9.00;99.90;;;;;;5015431;28;20489;-50
2022/10/04 00:34:04;;;;;;;18.73;9.57;;;9.10;99.90;;;;;;5011970;28;20045;-45
2022/10/04 00:36:37;;;;;;;20.08;9.15;;;9.00;99.90;;;;;;5015425;28;20080;-47
2022/10/04 00:39:12;;;;;;;20.67;9.05;;;8.90;99.90;;;;;;5015292;28;20035;-47
2022/10/04 00:41:47;;;;;;;11.30;8.07;;;8.90;99.90;;;;;;5015184;28;20030;-47
2022/10/04 00:44:21;;;;;;;10.87;7.83;;;8.90;99.90;;;;;;5014846;28;20402;-50
2022/10/04 00:46:48;;;;;;;11.75;7.47;;;8.90;99.90;;;;;;5015135;28;20389;-51
2022/10/04 00:49:18;;;;;;;12.40;7.75;;;8.90;99.90;;;;;;5015052;28;20014;-48
2022/10/04 00:52:07;;;;;;;13.57;7.57;;;8.80;99.90;;;;;;5014826;28;20038;-45
2022/10/04 00:54:45;;;;;;;18.00;8.73;;;8.80;99.90;;;;;;5014436;28;20034;-47
2022/10/04 00:57:26;;;;;;;14.25;7.53;;;8.80;99.90;;;;;;5013595;28;20026;-44
2022/10/04 00:59:57;;;;;;;11.10;7.50;;;8.80;99.90;;;;;;5014943;28;20083;-49
2022/10/04 01:02:57;;;;;;;10.43;8.15;;;8.70;99.90;;;;;;5014542;28;20021;-45
2022/10/04 01:05:27;;;;;;;9.93;6.47;;;8.70;99.90;;;;;;5012094;28;20037;-48
2022/10/04 01:08:02;;;;;;;10.63;7.45;;;8.70;99.90;;;;;;5014687;28;20393;-46
2022/10/04 01:10:31;;;;;;;15.48;7.50;;;8.70;99.90;;;;;;5013823;28;20397;-46
2022/10/04 01:13:18;;;;;;;11.25;7.47;;;8.60;99.90;;;;;;5012175;28;20041;-49
2022/10/04 01:15:59;;;;;;;13.00;8.32;;;8.50;99.90;;;;;;5012374;28;20512;-45
2022/10/04 01:18:25;;;;;;;13.77;7.85;;;8.50;99.90;;;;;;5014471;28;20033;-47
2022/10/04 01:21:12;;;;;;;17.80;8.48;;;8.40;99.90;;;;;;5014165;28;20026;-47
2022/10/04 01:23:40;;;;;;;12.68;7.70;;;8.30;99.90;;;;;;5012737;28;20026;-44
2022/10/04 01:26:30;;;;;;;17.08;8.77;;;8.30;99.90;;;;;;5014150;28;20025;-48
2022/10/04 01:29:04;;;;;;;15.65;8.02;;;8.20;99.90;;;;;;5013767;28;20041;-48
2022/10/04 01:31:32;;;;;;;14.15;8.13;;;8.20;99.90;;;;;;5014075;28;20026;-44
2022/10/04 01:33:59;;;;;;;15.15;9.00;;;8.20;99.90;;;;;;5014341;28;20022;-47
2022/10/04 01:36:26;;;;;;;12.82;8.25;;;8.20;99.90;;;;;;5014077;28;20083;-48
2022/10/04 01:38:52;;;;;;;13.38;7.72;;;8.20;99.90;;;;;;5014466;28;20489;-45
2022/10/04 01:41:24;;;;;;;12.10;8.27;;;8.10;99.90;;;;;;5014104;28;20026;-47
2022/10/04 01:43:57;;;;;;;16.63;8.48;;;8.10;99.90;;;;;;5013608;28;20040;-49
2022/10/04 01:46:32;;;;;;;15.40;8.63;;;8.10;99.90;;;;;;5013940;28;20559;-46
2022/10/04 01:49:01;;;;;;;17.48;8.10;;;8.20;99.90;;;;;;5012672;28;20030;-46
2022/10/04 01:51:32;;;;;;;17.17;8.63;;;8.10;99.90;;;;;;5013617;28;20033;-47
2022/10/04 01:54:01;;;;;;;17.55;8.30;;;8.20;99.90;;;;;;5013694;28;20033;-45
2022/10/04 01:56:36;;;;;;;13.88;7.82;;;8.20;99.90;;;;;;5013747;28;20034;-48
2022/10/04 01:59:06;;;;;;;9.90;7.97;;;8.20;99.90;;;;;;5014085;28;20083;-45
2022/10/04 02:01:34;;;;;;;13.15;8.02;;;8.20;99.90;;;;;;5013623;28;20068;-44
2022/10/04 02:04:12;;;;;;;10.75;7.20;;;8.20;99.90;;;;;;5013188;28;20014;-47
2022/10/04 02:06:41;;;;;;;8.55;6.88;;;8.20;99.90;;;;;;5013636;28;20161;-46
2022/10/04 02:09:13;;;;;;;12.30;8.10;;;8.10;99.90;;;;;;5013453;28;20105;-49
2022/10/04 02:11:42;;;;;;;10.32;8.13;;;8.10;99.90;;;;;;5013396;28;20044;-50
2022/10/04 02:14:17;;;;;;;14.80;7.60;;;8.00;99.90;;;;;;5013064;28;20417;-48
2022/10/04 02:16:45;;;;;;;13.65;7.63;;;8.00;99.90;;;;;;5013304;28;20490;-45
2022/10/04 02:19:12;;;;;;;11.93;7.38;;;7.90;99.90;;;;;;5013143;28;20478;-49
2022/10/04 02:21:38;;;;;;;11.60;7.43;;;8.00;99.90;;;;;;5013160;28;20398;-50
2022/10/04 02:24:06;;;;;;;12.00;7.90;;;8.00;99.90;;;;;;5013260;28;20033;-48
2022/10/04 02:26:31;;;;;;;11.95;8.18;;;8.00;99.90;;;;;;5012615;28;20493;-48
2022/10/04 02:28:57;;;;;;;14.70;9.43;;;8.00;99.90;;;;;;5012835;28;20034;-42
2022/10/04 02:34:08;;;;;;;16.50;9.60;;;8.10;99.90;;;;;;5013064;28;20053;-47
2022/10/04 02:36:35;;;;;;;18.00;9.10;;;8.10;99.90;;;;;;5013029;28;20026;-48
2022/10/04 02:39:01;;;;;;;13.13;8.68;;;8.10;99.90;;;;;;5012968;28;20058;-47
2022/10/04 02:41:40;;;;;;;10.57;8.45;;;8.10;99.90;;;;;;5012935;28;20056;-46
2022/10/04 02:44:38;;;;;;;11.25;7.57;;;8.10;99.90;;;;;;5011156;28;20030;-46
2022/10/04 02:47:22;;;;;;;11.50;7.72;;;8.00;99.90;;;;;;5005499;28;20038;-47
2022/10/04 02:49:55;;;;;;;12.23;7.25;;;8.00;99.90;;;;;;5012788;28;20030;-48
2022/10/04 02:52:36;;;;;;;14.07;9.00;;;7.90;99.90;;;;;;5012184;28;20026;-47
2022/10/04 02:55:16;;;;;;;12.45;7.88;;;7.80;99.90;;;;;;5012785;28;20108;-46
2022/10/04 02:57:42;;;;;;;20.15;8.65;;;7.80;99.90;;;;;;5012808;28;20028;-48
2022/10/04 03:00:29;;;;;;;18.55;8.10;;;7.70;99.90;;;;;;5012643;28;20105;-46
2022/10/04 03:03:22;;;;;;;12.85;7.15;;;7.70;99.90;;;;;;5012102;28;20441;-50
2022/10/04 03:06:03;;;;;;;15.43;8.05;;;7.60;99.90;;;;;;5012933;28;20029;-49
2022/10/04 03:08:33;;;;;;;10.07;7.80;;;7.60;99.90;;;;;;5012400;28;20041;-45
2022/10/04 03:11:03;;;;;;;13.52;7.55;;;7.50;99.90;;;;;;5012461;28;20101;-48
2022/10/04 03:13:30;;;;;;;13.48;8.05;;;7.50;99.90;;;;;;5012192;28;20444;-46
2022/10/04 03:15:55;;;;;;;12.68;7.40;;;7.50;99.90;;;;;;5012469;28;20036;-47
2022/10/04 03:18:21;;;;;;;17.58;7.70;;;7.50;99.90;;;;;;5012251;28;20021;-44
2022/10/04 03:20:47;;;;;;;10.40;7.53;;;7.50;99.90;;;;;;5012524;28;20061;-46
2022/10/04 03:23:15;;;;;;;13.27;7.65;;;7.50;99.90;;;;;;5010669;28;20053;-46
2022/10/04 03:25:50;;;;;;;12.40;7.75;;;7.50;99.90;;;;;;5012175;28;20463;-46
2022/10/04 03:28:16;;;;;;;12.68;7.13;;;7.40;99.90;;;;;;5011894;28;20125;-48
2022/10/04 03:30:44;;;;;;;11.73;8.38;;;7.40;99.90;;;;;;5012189;28;20505;-47
2022/10/04 03:33:17;;;;;;;16.42;8.63;;;7.40;99.90;;;;;;5011532;28;20413;-46
2022/10/04 03:35:47;;;;;;;13.43;7.15;;;7.40;99.90;;;;;;5012541;28;20022;-50
2022/10/04 03:38:14;;;;;;;13.77;8.50;;;7.40;99.90;;;;;;5011059;28;20030;-50
2022/10/04 03:40:48;;;;;;;13.80;8.55;;;7.40;99.90;;;;;;5012007;28;20498;-46
2022/10/04 03:43:14;;;;;;;18.85;9.68;;;7.40;99.90;;;;;;5011450;28;20092;-50
2022/10/04 03:45:41;;;;;;;19.55;8.60;;;7.40;99.90;;;;;;5011621;28;20029;-49
2022/10/04 03:48:11;;;;;;;18.40;9.20;;;7.30;99.90;;;;;;5011488;28;20025;-49
2022/10/04 03:50:45;;;;;;;21.58;9.20;;;7.30;99.90;;;;;;5012231;28;20030;-48
2022/10/04 03:53:23;;;;;;;17.65;8.52;;;7.30;99.90;;;;;;5011407;28;20393;-45
2022/10/04 03:55:48;;;;;;;13.85;8.93;;;7.20;99.90;;;;;;5011819;28;20064;-47
2022/10/04 03:58:16;;;;;;;14.80;8.88;;;7.20;99.90;;;;;;5011615;28;20057;-43
2022/10/04 04:01:14;;;;;;;13.35;8.80;;;7.20;99.90;;;;;;5011693;28;20022;-53
2022/10/04 04:04:11;;;;;;;14.95;8.95;;;7.20;99.90;;;;;;5011340;28;20026;-50
2022/10/04 04:06:45;;;;;;;14.23;8.35;;;7.20;99.90;;;;;;5011689;28;20459;-51
2022/10/04 04:09:24;;;;;;;13.50;9.05;;;7.10;99.90;;;;;;5011516;28;20033;-47
2022/10/04 04:11:52;;;;;;;13.50;8.70;;;7.10;99.90;;;;;;5010177;28;20040;-49
2022/10/04 04:14:26;;;;;;;14.88;8.95;;;7.20;99.90;;;;;;5011369;28;20544;-45
2022/10/04 04:17:14;;;;;;;16.83;9.20;;;7.10;99.90;;;;;;5011640;28;20417;-44
2022/10/04 04:19:41;;;;;;;11.20;8.25;;;7.20;99.90;;;;;;5011377;28;20030;-50
2022/10/04 04:22:15;;;;;;;19.30;9.55;;;7.20;99.90;;;;;;5011264;28;20029;-44
2022/10/04 04:24:42;;;;;;;11.05;8.32;;;7.20;99.90;;;;;;5011341;28;20029;-51
2022/10/04 04:27:09;;;;;;;15.10;8.13;;;7.20;99.90;;;;;;5011466;28;20033;-49
2022/10/04 04:29:51;;;;;;;18.15;9.05;;;7.20;99.90;;;;;;5011060;28;20457;-41
2022/10/04 04:32:23;;;;;;;15.07;9.02;;;7.20;99.90;;;;;;5011251;28;20049;-44
2022/10/04 04:34:56;;;;;;;25.02;9.70;;;7.20;99.90;;;;;;5011380;28;20037;-45
2022/10/04 04:37:22;;;;;;;17.58;8.95;;;7.10;99.90;;;;;;5010165;28;20026;-50
2022/10/04 04:39:53;;;;;;;11.93;8.18;;;7.20;99.90;;;;;;5011311;28;20052;-46
2022/10/04 04:42:30;;;;;;;11.43;8.25;;;7.10;99.90;;;;;;5011119;28;20068;-43
2022/10/04 04:45:02;;;;;;;12.15;8.25;;;7.10;99.90;;;;;;5009101;23;20048;-48
2022/10/04 04:47:33;;;;;;;13.13;7.78;;;7.10;99.90;;;;;;4990590;28;20022;-47
2022/10/04 04:50:30;;;;;;;8.55;7.35;;;7.10;99.90;;;;;;4992514;28;20031;-50
2022/10/04 04:53:04;;;;;;;9.85;7.95;;;7.10;99.90;;;;;;4993934;28;20034;-46
2022/10/04 04:55:36;;;;;;;15.00;8.30;;;7.10;99.90;;;;;;4995486;28;20394;-46
2022/10/04 04:58:02;;;;;;;33.72;8.27;;;7.00;99.90;;;;;;4995228;28;20019;-45
2022/10/04 05:00:32;;;;;;;19.35;8.13;;;7.00;99.90;;;;;;4993772;28;20398;-46
2022/10/04 05:03:00;;;;;;;19.67;8.05;;;6.90;99.90;;;;;;4995007;28;20170;-46
2022/10/04 05:05:31;;;;;;;15.23;8.60;;;7.00;99.90;;;;;;4995092;28;20026;-47
2022/10/04 05:08:18;;;;;;;25.25;8.43;;;7.00;99.90;;;;;;4994989;28;20250;-47
2022/10/04 05:11:05;;;;;;;27.10;8.43;;;7.00;99.90;;;;;;4995068;28;20033;-45
2022/10/04 05:13:42;;;;;;;10.25;7.32;;;6.90;99.90;;;;;;4994506;28;20026;-45
2022/10/04 05:16:38;;;;;;;10.85;7.28;;;6.90;99.90;;;;;;4995044;28;20422;-46
2022/10/04 05:19:13;;;;;;;15.00;7.35;;;6.90;99.90;;;;;;4993286;28;20582;-48
2022/10/04 05:21:43;;;;;;;10.23;7.93;;;6.90;99.90;;;;;;4993599;28;20026;-45
2022/10/04 05:24:13;;;;;;;14.80;8.07;;;6.90;99.90;;;;;;4992874;28;20081;-48
2022/10/04 05:26:41;;;;;;;11.48;7.25;;;6.90;99.90;;;;;;4994805;28;20394;-48
2022/10/04 05:29:18;;;;;;;9.32;7.32;;;6.90;99.90;;;;;;4994188;28;20523;-45
2022/10/04 05:32:06;;;;;;;11.57;7.65;;;6.90;99.90;;;;;;4994558;28;20023;-49
2022/10/04 05:34:38;;;;;;;11.43;7.20;;;7.00;99.90;;;;;;4963686;28;20070;-48
2022/10/04 05:37:24;;;;;;;9.35;7.25;;;7.00;99.90;;;;;;4994498;28;20025;-46
2022/10/04 05:39:56;;;;;;;12.73;8.80;;;7.00;99.90;;;;;;4994322;28;20078;-46
2022/10/04 05:42:44;;;;;;;12.13;8.80;;;7.10;99.90;;;;;;4994072;28;20034;-47
2022/10/04 05:45:22;;;;;;;12.77;8.10;;;7.10;99.90;;;;;;4993897;28;20042;-48
2022/10/04 05:47:51;;;;;;;12.77;7.43;;;7.10;99.90;;;;;;4994226;28;20450;-46
2022/10/04 05:50:24;;;;;;;10.02;7.63;;;7.10;99.90;;;;;;4994043;28;20034;-49
2022/10/04 05:52:51;;;;;;;8.27;6.65;;;7.20;99.90;;;;;;4993996;28;20120;-48
2022/10/04 05:55:39;;;;;;;14.38;6.15;;;7.20;99.90;;;;;;4994214;28;20101;-46
2022/10/04 05:58:26;;;;;;;12.63;7.13;;;7.20;99.90;;;;;;4994207;28;20030;-50
2022/10/04 06:01:09;;;;;;;9.38;6.60;;;7.20;99.90;;;;;;4993705;28;20029;-47
2022/10/04 06:04:02;;;;;;;8.63;6.00;;;7.30;99.90;;;;;;4992578;28;20531;-45
2022/10/04 06:07:00;;;;;;;7.22;6.07;;;7.40;99.90;;;;;;4993265;28;20058;-46
2022/10/04 06:09:56;;;;;;;8.05;5.32;;;7.40;99.90;;;;;;4990720;28;20422;-47
2022/10/04 06:12:52;;;;;;;7.05;6.13;;;7.50;99.90;;;;;;4993520;28;20026;-46
2022/10/04 06:15:30;;;;;;;6.45;5.78;;;7.60;99.90;;;;;;4993479;28;20030;-47
2022/10/04 06:18:12;;;;;;;7.95;5.60;;;7.60;99.90;;;;;;4993891;28;20033;-47
2022/10/04 06:21:08;;;;;;;11.18;5.60;;;7.60;99.90;;;;;;4993788;28;20487;-47
2022/10/04 06:23:43;;;;;;;16.92;6.05;;;7.70;99.90;;;;;;4993406;28;20030;-46
2022/10/04 06:26:17;;;;;;;7.63;6.50;;;7.70;99.90;;;;;;4993781;28;20034;-45
2022/10/04 06:28:48;;;;;;;6.35;5.72;;;7.70;99.90;;;;;;4991993;28;20030;-45
2022/10/04 06:31:43;;;;;;;6.00;5.40;;;7.70;99.90;;;;;;4993575;28;20026;-47
2022/10/04 06:34:27;;;;;;;9.25;5.35;;;7.80;99.90;;;;;;4993119;28;20510;-46
2022/10/04 06:37:14;;;;;;;5.45;4.95;;;7.80;99.90;;;;;;4993464;28;20050;-45
2022/10/04 06:40:18;;;;;;;11.02;4.63;;;7.80;99.90;;;;;;4993284;28;20026;-49
2022/10/04 06:42:55;;;;;;;5.60;4.38;;;7.80;99.90;;;;;;4993064;28;20392;-51
2022/10/04 06:45:44;;;;;;;9.10;5.63;;;7.90;99.90;;;;;;4993207;28;20106;-50
2022/10/04 06:48:18;;;;;;;7.35;4.95;;;7.80;99.90;;;;;;4993240;28;20058;-45
2022/10/04 06:50:53;;;;;;;7.65;5.22;;;8.00;99.90;;;;;;4993329;28;20030;-48
2022/10/04 06:53:37;;;;;;;6.78;4.95;;;8.10;99.90;;;;;;4992781;28;20386;-48
2022/10/04 06:56:29;;;;;;;6.47;4.85;;;8.30;99.90;;;;;;4993102;28;20030;-48
2022/10/04 06:59:17;;;;;;;6.50;5.07;;;8.40;99.90;;;;;;4970187;28;20046;-48
2022/10/04 07:01:59;;;;;;;6.22;4.07;;;8.50;99.90;;;;;;4993435;28;20026;-46
2022/10/04 07:04:35;;;;;;;9.73;4.47;;;8.50;99.90;;;;;;4993015;28;20113;-46
2022/10/04 07:07:25;;;;;;;4.45;3.92;;;8.60;99.90;;;;;;4992997;28;20022;-46
2022/10/04 07:10:21;;;;;;;5.13;3.47;;;8.50;99.90;;;;;;4992957;28;20046;-46
2022/10/04 07:13:23;;;;;;;4.38;3.75;;;8.60;99.90;;;;;;4992665;28;20066;-45
2022/10/04 07:15:56;;;;;;;4.90;3.85;;;8.60;99.90;;;;;;4992638;28;20031;-48
2022/10/04 07:18:51;;;;;;;3.95;3.55;;;8.90;99.90;;;;;;4992780;28;20026;-49
2022/10/04 07:21:17;;;;;;;8.30;3.80;;;9.50;99.90;;;;;;4979610;28;20046;-48
2022/10/04 07:23:43;;;;;;;8.23;4.35;;;10.10;99.90;;;;;;4992246;28;20030;-47
2022/10/04 07:26:37;;;;;;;6.18;3.35;;;10.70;99.90;;;;;;4992632;28;20030;-50
2022/10/04 07:29:31;;;;;;;3.22;2.92;;;11.20;99.90;;;;;;4992331;28;20453;-48
2022/10/04 07:32:13;;;;;;;6.47;4.30;;;11.30;99.90;;;;;;4991402;28;20049;-43
2022/10/04 07:35:15;;;;;;;3.53;3.22;;;11.40;99.90;;;;;;4992301;28;20039;-44
2022/10/04 07:37:53;;;;;;;3.85;3.33;;;11.40;99.90;;;;;;4985999;28;20046;-49
2022/10/04 07:40:58;;;;;;;3.75;2.88;;;11.30;99.90;;;;;;4992133;28;20053;-46
2022/10/04 07:43:31;;;;;;;5.38;3.22;;;11.40;99.90;;;;;;4961400;28;20502;-48
2022/10/04 07:46:19;;;;;;;4.63;3.25;;;11.20;99.90;;;;;;4992125;28;20022;-46
2022/10/04 07:48:48;;;;;;;3.75;3.20;;;10.90;99.90;;;;;;4984245;28;20049;-44
2022/10/04 07:51:26;;;;;;;4.25;3.10;;;10.60;99.90;;;;;;4992094;28;20495;-44
2022/10/04 07:54:03;;;;;;;2.95;2.75;;;10.60;99.90;;;;;;4991523;28;20087;-44
2022/10/04 07:56:37;;;;;;;3.55;3.25;;;10.60;99.90;;;;;;4991571;28;20026;-50
2022/10/04 07:59:31;;;;;;;6.18;3.55;;;10.80;99.90;;;;;;4991882;28;20398;-45
2022/10/04 08:02:36;;;;;;;3.67;3.38;;;10.90;99.90;;;;;;4991921;28;20520;-45
2022/10/04 08:05:11;;;;;;;5.50;3.58;;;11.10;99.90;;;;;;4991883;28;20084;-45
2022/10/04 08:08:05;;;;;;;5.28;3.33;;;11.00;99.90;;;;;;4992182;28;20520;-47
2022/10/04 08:10:55;;;;;;;7.38;3.45;;;11.10;99.90;;;;;;4991909;28;20035;-47
2022/10/04 08:13:48;;;;;;;3.92;3.20;;;11.10;99.90;;;;;;4991569;28;20113;-44
2022/10/04 08:16:46;;;;;;;4.88;4.13;;;11.10;99.90;;;;;;4964737;28;20034;-45
2022/10/04 08:19:26;;;;;;;3.28;3.00;;;11.20;99.90;;;;;;4991994;28;20018;-46
2022/10/04 08:22:02;;;;;;;6.03;3.55;;;11.30;99.90;;;;;;4992074;28;20379;-48
2022/10/04 08:24:46;;;;;;;6.03;4.13;;;11.40;99.90;;;;;;4992547;28;20410;-45
2022/10/04 08:27:29;;;;;;;4.00;3.65;;;11.50;99.90;;;;;;4994716;28;20027;-47
2022/10/04 08:30:13;;;;;;;5.10;4.13;;;11.40;99.90;;;;;;4996004;28;20089;-47
2022/10/04 08:33:08;;;;;;;5.47;4.03;;;11.50;99.90;;;;;;4995457;28;20037;-44
2022/10/04 08:36:00;;;;;;;4.90;3.88;;;11.60;99.90;;;;;;4995554;28;20019;-46
2022/10/04 08:38:51;;;;;;;8.25;3.95;;;11.70;99.90;;;;;;4968977;28;20066;-44
2022/10/04 08:41:48;;;;;;;8.32;4.25;;;11.80;99.90;;;;;;4995710;28;20019;-47
2022/10/04 08:44:19;;;;;;;7.70;4.28;;;12.00;99.90;;;;;;4995109;28;20050;-48
2022/10/04 08:47:16;;;;;;;4.30;3.60;;;12.10;99.90;;;;;;4995246;28;20499;-47
2022/10/04 08:50:04;;;;;;;13.82;4.07;;;12.20;99.90;;;;;;4996407;28;20509;-45
2022/10/04 08:53:08;;;;;;;8.13;4.78;;;12.30;99.90;;;;;;4996025;28;20018;-45
2022/10/04 08:55:48;;;;;;;8.23;4.28;;;12.30;99.90;;;;;;4995393;28;20022;-46
2022/10/04 08:58:22;;;;;;;8.77;4.35;;;12.40;99.90;;;;;;4995295;28;20398;-46
2022/10/04 09:01:12;;;;;;;5.80;4.50;;;12.50;99.90;;;;;;4995202;28;20088;-45
2022/10/04 09:04:02;;;;;;;6.05;4.13;;;12.60;99.90;;;;;;4994911;28;20490;-44
2022/10/04 09:06:54;;;;;;;9.02;6.10;;;13.20;99.90;;;;;;4995061;28;20037;-45
2022/10/04 09:09:47;;;;;;;5.93;3.80;;;13.90;99.90;;;;;;4995000;28;20042;-45
2022/10/04 09:12:30;;;;;;;3.88;3.50;;;14.70;99.90;;;;;;4993383;28;20046;-48
2022/10/04 09:15:25;;;;;;;3.92;3.08;;;15.50;99.90;;;;;;4993777;28;20073;-45
2022/10/04 09:18:00;;;;;;;3.33;2.97;;;15.70;99.90;;;;;;4994934;28;20042;-50
2022/10/04 09:21:01;;;;;;;7.18;3.45;;;16.00;99.90;;;;;;4995061;28;20097;-45
2022/10/04 09:24:03;;;;;;;3.17;2.88;;;16.40;99.90;;;;;;4994482;28;20049;-47
2022/10/04 09:26:48;;;;;;;7.13;3.42;;;16.70;99.90;;;;;;4994732;28;20034;-47
2022/10/04 09:29:33;;;;;;;7.40;3.25;;;17.00;99.90;;;;;;4994543;28;20061;-48
2022/10/04 09:32:36;;;;;;;6.60;3.38;;;17.20;99.90;;;;;;4994222;28;20040;-47
2022/10/04 09:35:36;;;;;;;3.35;2.90;;;17.40;99.90;;;;;;4993267;28;20494;-49
2022/10/04 09:38:17;;;;;;;5.95;3.25;;;17.70;99.90;;;;;;4994008;28;20029;-47
2022/10/04 09:41:20;;;;;;;3.88;2.92;;;18.10;99.90;;;;;;4994702;28;20022;-46
2022/10/04 09:44:18;;;;;;;7.10;3.25;;;18.40;99.90;;;;;;4950213;28;20092;-45
2022/10/04 09:47:02;;;;;;;5.43;3.95;;;18.40;99.90;;;;;;4994204;28;20081;-48
2022/10/04 09:49:40;;;;;;;7.18;3.20;;;18.40;99.90;;;;;;4994255;28;20026;-47
2022/10/04 09:52:33;;;;;;;4.93;4.05;;;18.40;99.90;;;;;;4993997;28;20034;-47
2022/10/04 09:55:35;;;;;;;9.75;3.35;;;17.90;99.90;;;;;;4994097;28;20026;-47
2022/10/04 09:58:32;;;;;;;3.75;3.45;;;17.20;99.90;;;;;;4994023;28;20022;-45
2022/10/04 10:01:19;;;;;;;3.35;3.05;;;17.10;99.90;;;;;;4993994;28;20376;-49
2022/10/04 10:04:04;;;;;;;6.68;3.78;;;17.10;99.90;;;;;;4993702;28;20397;-46
2022/10/04 10:06:48;;;;;;;4.25;3.25;;;17.00;99.90;;;;;;4993927;28;20030;-45
2022/10/04 10:15:58;;;;;;;8.52;4.53;;;17.30;99.90;;;;;;4994022;28;20081;-46
2022/10/04 10:18:51;;;;;;;11.25;4.10;;;17.30;99.90;;;;;;4993812;28;20393;-45
2022/10/04 10:21:26;;;;;;;6.10;3.72;;;17.40;99.90;;;;;;4994008;28;20568;-47
2022/10/04 10:24:01;;;;;;;6.65;3.97;;;17.30;99.90;;;;;;4993132;28;20022;-49
2022/10/04 10:26:27;;;;;;;8.05;4.05;;;16.70;99.90;;;;;;4993733;28;20497;-47
2022/10/04 10:29:10;;;;;;;6.25;3.90;;;16.60;99.90;;;;;;4993051;28;20076;-47
2022/10/04 10:31:52;;;;;;;4.68;3.63;;;16.70;99.90;;;;;;4993177;28;20478;-47
2022/10/04 10:34:20;;;;;;;7.20;4.05;;;16.70;99.90;;;;;;4993483;28;20076;-48
2022/10/04 10:37:29;;;;;;;6.07;3.58;;;16.70;99.90;;;;;;4993223;28;20461;-50
2022/10/04 10:40:05;;;;;;;13.27;5.43;;;16.60;99.90;;;;;;4965529;28;20038;-48
2022/10/04 10:42:49;;;;;;;;;;;16.40;99.90;;;;;;4993391;28;20018;-47
2022/10/04 10:45:54;;;;;;;8.38;3.80;;;16.20;99.90;;;;;;5025619;23;19922;-43
2022/10/04 10:48:25;;;;;;;5.78;3.83;;;16.10;99.90;;;;;;5012716;28;20022;-43
2022/10/04 10:51:30;;;;;;;5.78;4.40;;;16.10;99.90;;;;;;5013179;28;20100;-45
2022/10/04 10:54:33;;;;;;;6.47;5.15;;;16.20;99.90;;;;;;5012523;28;20579;-44
2022/10/04 10:57:04;;;;;;;23.73;16.58;;;16.20;99.90;;;;;;5013049;28;20026;-46
2022/10/04 10:59:50;;;;;;;105.25;69.40;;;16.30;99.90;;;;;;5012882;28;20026;-44
2022/10/04 11:02:53;;;;;;;10.32;8.93;;;16.20;99.90;;;;;;5012738;28;20026;-46
2022/10/04 11:05:33;;;;;;;13.57;9.15;;;16.00;99.90;;;;;;5012813;28;20029;-44
2022/10/04 11:08:22;;;;;;;14.93;9.45;;;15.70;99.90;;;;;;5012294;28;20057;-42
2022/10/04 11:11:20;;;;;;;13.48;9.00;;;15.50;99.90;;;;;;5012440;28;20366;-46
2022/10/04 11:14:01;;;;;;;20.90;9.15;;;15.30;99.90;;;;;;5012105;28;20033;-47
2022/10/04 11:17:00;;;;;;;20.23;11.07;;;15.30;99.90;;;;;;5012592;28;20422;-49
2022/10/04 11:19:49;;;;;;;13.57;9.65;;;15.30;99.90;;;;;;5007749;28;20049;-44
2022/10/04 11:22:41;;;;;;;15.57;8.38;;;15.30;99.90;;;;;;5012115;28;20029;-44
2022/10/04 11:25:06;;;;;;;15.63;10.40;;;15.20;99.90;;;;;;5010987;28;20117;-44
2022/10/04 11:27:52;;;;;;;26.20;11.85;;;15.10;99.90;;;;;;5011921;28;20470;-44
2022/10/04 11:30:25;;;;;;;12.85;9.48;;;15.10;99.90;;;;;;5012648;28;20033;-44
2022/10/04 11:33:08;;;;;;;15.85;8.90;;;15.10;99.90;;;;;;5012452;28;20414;-45
2022/10/04 11:36:02;;;;;;;12.30;8.55;;;15.10;99.90;;;;;;5011960;28;20022;-44
2022/10/04 11:38:48;;;;;;;17.95;8.93;;;15.20;99.90;;;;;;5012022;28;20036;-45
2022/10/04 11:41:35;;;;;;;18.83;10.15;;;15.20;99.90;;;;;;5012065;28;20033;-49
2022/10/04 11:44:34;;;;;;;14.25;10.43;;;15.10;99.90;;;;;;5011457;28;20411;-46
2022/10/04 11:47:32;;;;;;;17.92;9.85;;;15.20;99.90;;;;;;5012595;28;20394;-44
2022/10/04 11:50:04;;;;;;;16.92;10.45;;;15.00;99.90;;;;;;5011955;28;20371;-43
2022/10/04 11:52:49;;;;;;;18.70;9.80;;;15.00;99.90;;;;;;5011593;28;20037;-46
2022/10/04 11:55:53;;;;;;;15.52;10.75;;;14.90;99.90;;;;;;5011846;28;20049;-45
2022/10/04 11:58:27;;;;;;;18.65;10.70;;;14.80;99.90;;;;;;5011825;28;20104;-43
2022/10/04 12:01:31;;;;;;;20.23;10.93;;;14.80;99.90;;;;;;5009877;28;20030;-45
2022/10/04 12:04:27;;;;;;;17.27;11.23;;;14.90;99.90;;;;;;5011534;28;20026;-50
2022/10/04 12:07:09;;;;;;;19.17;10.63;;;14.80;99.90;;;;;;5011592;28;20025;-46
2022/10/04 12:09:41;;;;;;;16.63;11.07;;;14.90;99.90;;;;;;5011549;28;20096;-51
2022/10/04 12:12:37;;;;;;;16.42;10.60;;;14.90;99.90;;;;;;5011422;28;20033;-44
2022/10/04 12:15:35;;;;;;;17.77;11.60;;;14.90;99.90;;;;;;5010241;28;20022;-48
2022/10/04 12:18:27;;;;;;;16.85;11.10;;;15.00;99.90;;;;;;5011737;28;20064;-45
2022/10/04 12:21:19;;;;;;;17.58;11.63;;;15.00;99.90;;;;;;5011397;28;20478;-47
2022/10/04 12:24:33;;;;;;;16.83;11.60;;;15.00;99.90;;;;;;5011314;28;20057;-50
2022/10/04 12:27:32;;;;;;;50.30;33.10;;;15.00;99.90;;;;;;4941212;28;20114;-48
2022/10/04 12:30:24;;;;;;;20.75;14.77;;;15.00;99.90;;;;;;5011517;28;20438;-45
2022/10/04 12:33:11;;;;;;;22.02;14.23;;;15.10;99.90;;;;;;5011015;28;20275;-45
2022/10/04 12:35:57;;;;;;;15.85;10.68;;;15.20;99.90;;;;;;5011151;28;20030;-47
2022/10/04 12:38:50;;;;;;;17.30;9.65;;;15.20;99.90;;;;;;5011481;28;20103;-45
2022/10/04 12:41:33;;;;;;;20.60;11.07;;;15.20;99.90;;;;;;5010019;28;20052;-42
2022/10/04 12:44:28;;;;;;;13.73;8.43;;;15.30;99.90;;;;;;5010684;28;20030;-46
2022/10/04 12:47:12;;;;;;;16.90;9.65;;;15.30;99.90;;;;;;5011246;28;20025;-45
2022/10/04 12:49:40;;;;;;;14.40;10.07;;;15.30;99.90;;;;;;5011037;28;20032;-46
2022/10/04 12:52:14;;;;;;;13.55;9.75;;;15.30;99.90;;;;;;5010731;28;20026;-46
2022/10/04 12:54:57;;;;;;;16.15;9.65;;;15.40;99.90;;;;;;5010927;28;20109;-47
2022/10/04 12:57:49;;;;;;;12.18;8.80;;;15.40;99.90;;;;;;5011193;28;20041;-46
2022/10/04 13:00:28;;;;;;;14.88;7.80;;;15.50;99.90;;;;;;5010910;28;20026;-40
2022/10/04 13:03:18;;;;;;;10.85;7.00;;;15.60;99.90;;;;;;5010767;28;20057;-46
2022/10/04 13:05:49;;;;;;;10.30;6.70;;;15.60;99.90;;;;;;5010875;28;20113;-48
2022/10/04 13:08:33;;;;;;;12.35;6.38;;;15.70;99.90;;;;;;5011085;28;20026;-47
2022/10/04 13:11:08;;;;;;;14.98;6.15;;;15.80;99.90;;;;;;5012038;28;20029;-42
2022/10/04 13:13:59;;;;;;;11.68;6.43;;;15.80;99.90;;;;;;5014245;28;20034;-44
2022/10/04 13:16:33;;;;;;;12.27;6.82;;;15.90;99.90;;;;;;5014337;28;20026;-44
2022/10/04 13:19:10;;;;;;;10.10;6.07;;;16.00;99.90;;;;;;5014386;28;20033;-45
2022/10/04 13:21:35;;;;;;;11.45;5.95;;;16.00;99.90;;;;;;5014177;28;20053;-45
2022/10/04 13:24:27;;;;;;;11.68;5.85;;;16.00;99.90;;;;;;5013852;28;20443;-46
2022/10/04 13:27:02;;;;;;;12.38;6.13;;;16.00;99.90;;;;;;5014195;28;20374;-49
2022/10/04 13:29:34;;;;;;;8.82;5.70;;;16.10;99.90;;;;;;5013772;28;20036;-47
2022/10/04 13:32:15;;;;;;;15.05;6.50;;;16.20;99.90;;;;;;5013809;28;20064;-47
2022/10/04 13:34:59;;;;;;;9.32;5.82;;;16.20;99.90;;;;;;5014144;28;20478;-50
2022/10/04 13:37:28;;;;;;;9.23;5.13;;;16.20;99.90;;;;;;5014057;28;20026;-50
2022/10/04 13:40:06;;;;;;;9.90;4.97;;;16.20;99.90;;;;;;5013831;28;20375;-51
2022/10/04 13:42:34;;;;;;;9.38;5.20;;;16.20;99.90;;;;;;5014023;28;20371;-47
2022/10/04 13:45:23;;;;;;;12.60;5.50;;;16.20;99.90;;;;;;5013746;28;20564;-46
2022/10/04 13:48:18;;;;;;;9.10;4.93;;;16.30;99.90;;;;;;5013947;28;20025;-45
2022/10/04 13:51:10;;;;;;;9.65;5.43;;;16.30;99.90;;;;;;5013956;28;20022;-47
2022/10/04 13:56:52;;;;;;;7.88;5.07;;;16.30;99.90;;;;;;5013859;28;20033;-44
2022/10/04 13:59:41;;;;;;;12.07;5.07;;;16.40;99.90;;;;;;5013820;28;20054;-44
2022/10/04 14:02:54;;;;;;;14.07;5.57;;;16.50;99.90;;;;;;5013263;28;20441;-46
2022/10/04 14:05:20;;;;;;;7.47;5.30;;;16.60;99.90;;;;;;5013575;28;20030;-46
2022/10/04 14:07:57;;;;;;;8.02;5.10;;;16.60;99.90;;;;;;5013806;28;20512;-47